Gioia Del Colle Airport LIBV

Flugplatz Daten

Name: Gioia Del Colle Airport

Ident: LIBV

Lat: 40,76779938

Long: 16,93330002

Platzhöhe: 1187 ft

IataCode:

City: Gioia Del Colle

Metar

2021/12/03 23:55
LIBV 032355Z 33010KT 7000 SCT025 10/08 Q1007 RMK SCT VIS MIN 7000 WIND THR32 34011KT WIND THR14 35012KT WHT

Taf

2021/11/04 06:27
TAF LIBV 0406/0418 15035G35KT 0800 FG OVC003
BECMG 0407/0409 4000 BR BKN007
BECMG 0410/0412 16018G28KT 5000 BR BKN010 SCT035
BECMG 0415/0417 16015KT
TEMPO 0411/0415 SHRA
Gewünschte Webcam nicht vorhanden? Dann fügen Sie eine hinzu. Sie wird dann so schnell wie möglich freigeschaltet
Url: Title: